Columbus Metropolitan Airport Columbus US
ICAO: KCSG
IATA: CSG
Category: Medium
Scheduled Services: Yes

Elevation: 397 ft
TransAlt. 18000 ft.

Airport Communications:
ATLANTA APP/DEP:125.5
ATIS:127.75
CTAF:120.1
GND:121.9
MACON RDO:122.65
TWR:120.1
UNICOM:122.95

KCSG Zoom In..

If you have problems with the map follow the link
https://www.worldairports.se/pages/airport.php?
ICAO=KCSG

Runways:

(A) RW 06 length 6997 ft width 150 ft
ILS 110.30 / hdg 56

(B) RW 13 length 3997 ft width 150 ft
---- / hdg 129

(C) RW 24 length 6997 ft width 150 ft
---- / hdg 236

(D) RW 31 length 3997 ft width 150 ft
---- / hdg 309

Location; KCSG
Day. 21 / Time. 05.51 Zulu
* Altimeter: 30.38
* Temperature: -01° c. -30.2°f.
* Wind from: 350° Speed 04 kn.
Dewpoint: -08° c.
Visibility: 10 Statute Miles.
Clouds: Clear (automated report).

KCSG 210551Z AUTO 35004KT 10SM CLR M01/M08 A3038 RMK AO2 SLP290 T10111078 10044 21011 56006


Wind From 350°
Speed 04 kn.

 
 
jpsmedia worldairports.se 2020   terms of use